createdAt,value
2022-08-10T00:00:58.289Z,16.70
2022-08-10T00:06:03.030Z,16.60
2022-08-10T00:11:07.411Z,16.60
2022-08-10T00:16:20.211Z,16.70
2022-08-10T00:21:27.161Z,16.70
2022-08-10T00:27:53.121Z,16.70
2022-08-10T00:31:57.925Z,16.80
2022-08-10T00:37:04.022Z,16.90
2022-08-10T00:42:08.633Z,16.90
2022-08-10T00:47:35.765Z,16.90
2022-08-10T00:52:39.258Z,16.90
2022-08-10T00:57:46.799Z,16.80
2022-08-10T01:02:59.253Z,16.80
2022-08-10T01:08:17.603Z,16.90
2022-08-10T01:13:27.588Z,16.90
2022-08-10T01:18:40.761Z,16.90
2022-08-10T01:24:09.745Z,16.70
2022-08-10T01:29:54.597Z,16.70
2022-08-10T01:35:07.689Z,16.60
2022-08-10T01:40:13.842Z,16.70
2022-08-10T01:45:24.468Z,16.50
2022-08-10T01:50:31.761Z,16.40
2022-08-10T01:55:36.250Z,16.30
2022-08-10T02:00:45.714Z,16.20
2022-08-10T02:05:54.203Z,16.10
2022-08-10T02:10:58.411Z,16.10
2022-08-10T02:16:08.152Z,16.00
2022-08-10T02:21:13.629Z,15.90
2022-08-10T02:26:24.396Z,15.80
2022-08-10T02:31:31.176Z,15.90
2022-08-10T02:36:37.598Z,15.90
2022-08-10T02:45:13.339Z,16.00
2022-08-10T02:47:13.347Z,15.90
2022-08-10T02:52:22.163Z,15.80
2022-08-10T02:57:29.514Z,15.60
2022-08-10T03:02:37.183Z,15.60
2022-08-10T03:07:48.399Z,15.60
2022-08-10T03:12:56.391Z,15.60
2022-08-10T03:18:01.995Z,15.70
2022-08-10T03:23:07.000Z,15.60
2022-08-10T03:28:11.443Z,15.50
2022-08-10T03:33:26.865Z,15.30
2022-08-10T03:38:31.208Z,15.30
2022-08-10T03:43:35.466Z,15.10
2022-08-10T03:48:49.047Z,14.80
2022-08-10T03:54:03.661Z,14.40
2022-08-10T03:59:12.937Z,14.30
2022-08-10T04:04:23.538Z,14.20
2022-08-10T04:09:55.729Z,14.10
2022-08-10T04:14:53.700Z,14.00
2022-08-10T04:20:00.702Z,14.10
2022-08-10T04:25:07.779Z,14.20
2022-08-10T04:30:11.712Z,14.30
2022-08-10T04:35:18.227Z,14.60
2022-08-10T04:40:28.445Z,14.90
2022-08-10T04:45:49.795Z,14.90
2022-08-10T04:50:56.100Z,15.00
2022-08-10T04:56:03.105Z,15.10
2022-08-10T05:01:07.739Z,15.10
2022-08-10T05:06:12.620Z,15.20
2022-08-10T05:11:23.746Z,15.30
2022-08-10T05:16:32.144Z,15.40
2022-08-10T05:21:57.017Z,15.50
2022-08-10T05:27:09.949Z,15.70
2022-08-10T05:32:13.895Z,15.80
2022-08-10T05:38:12.374Z,16.00
2022-08-10T05:42:44.080Z,16.10
2022-08-10T05:48:41.658Z,16.20
2022-08-10T05:53:23.188Z,16.30
2022-08-10T05:58:36.159Z,16.60
2022-08-10T06:03:44.855Z,16.80
2022-08-10T06:08:51.597Z,17.10
2022-08-10T06:14:16.668Z,17.30
2022-08-10T06:19:22.715Z,18.10
2022-08-10T06:24:30.433Z,23.60
2022-08-10T06:29:35.996Z,28.40
2022-08-10T06:34:43.099Z,30.90
2022-08-10T06:39:49.119Z,33.30
2022-08-10T06:45:00.403Z,33.80
2022-08-10T06:50:09.422Z,34.30
2022-08-10T06:55:16.743Z,34.90
2022-08-10T07:00:22.112Z,35.40
2022-08-10T07:05:32.614Z,34.70
2022-08-10T07:10:45.559Z,35.00
2022-08-10T07:15:58.238Z,35.70
2022-08-10T07:21:05.440Z,35.40
2022-08-10T07:26:11.676Z,34.60
2022-08-10T07:31:55.528Z,35.40
2022-08-10T07:36:44.049Z,35.60
2022-08-10T07:41:52.062Z,35.60
2022-08-10T07:46:57.765Z,34.60
2022-08-10T07:52:01.676Z,33.80
2022-08-10T07:57:11.393Z,34.90
2022-08-10T08:02:31.310Z,35.80
2022-08-10T08:07:40.988Z,35.30
2022-08-10T08:12:47.579Z,35.00
2022-08-10T08:17:59.828Z,35.30
2022-08-10T08:24:09.125Z,34.10
2022-08-10T08:28:30.819Z,35.00
2022-08-10T08:33:42.434Z,35.10
2022-08-10T08:38:47.302Z,34.30
2022-08-10T08:44:00.473Z,34.40
2022-08-10T08:50:04.930Z,35.20
2022-08-10T08:56:04.493Z,35.50
2022-08-10T09:00:45.573Z,34.60
2022-08-10T09:06:03.328Z,33.80
2022-08-10T09:11:22.610Z,33.60
2022-08-10T09:16:35.541Z,33.40
2022-08-10T09:22:12.955Z,31.90
2022-08-10T09:27:22.274Z,31.50
2022-08-10T09:36:15.818Z,32.70
2022-08-10T09:38:14.048Z,32.50
2022-08-10T09:43:32.046Z,33.50
2022-08-10T09:48:52.469Z,33.10
2022-08-10T09:54:05.325Z,32.50
2022-08-10T10:00:01.273Z,32.30
2022-08-10T10:05:09.640Z,32.70
2022-08-10T10:10:18.345Z,32.90
2022-08-10T10:15:33.338Z,32.80
2022-08-10T10:20:57.332Z,32.00
2022-08-10T10:26:17.724Z,30.30
2022-08-10T10:31:30.470Z,30.30
2022-08-10T10:36:37.370Z,29.50
2022-08-10T10:42:03.809Z,29.30
2022-08-10T10:47:27.084Z,29.70
2022-08-10T10:52:42.052Z,29.90
2022-08-10T10:58:08.149Z,30.10
2022-08-10T11:03:38.532Z,29.40
2022-08-10T11:08:52.120Z,29.40
2022-08-10T11:14:24.500Z,29.90
2022-08-10T11:20:02.748Z,29.60
2022-08-10T11:25:17.517Z,29.00
2022-08-10T11:30:28.511Z,29.60
2022-08-10T11:35:38.250Z,29.40
2022-08-10T11:41:12.713Z,29.50
2022-08-10T11:46:37.430Z,29.80
2022-08-10T11:51:48.685Z,29.20
2022-08-10T11:57:09.395Z,29.40
2022-08-10T12:02:21.716Z,29.70
2022-08-10T12:10:02.911Z,29.50
2022-08-10T12:13:00.593Z,29.40
2022-08-10T12:18:08.589Z,29.20
2022-08-10T12:23:22.111Z,29.50
2022-08-10T12:28:50.263Z,29.70
2022-08-10T12:34:09.093Z,29.50
2022-08-10T12:39:18.678Z,29.50
2022-08-10T12:44:42.242Z,29.60
2022-08-10T12:50:29.822Z,29.70
2022-08-10T12:55:21.609Z,29.80
2022-08-10T13:00:48.964Z,30.00
2022-08-10T13:06:06.483Z,29.60
2022-08-10T13:12:13.561Z,29.60
2022-08-10T13:16:45.131Z,29.80
2022-08-10T13:21:55.639Z,29.40
2022-08-10T13:27:26.829Z,29.70
2022-08-10T13:32:38.813Z,29.70
2022-08-10T13:38:00.093Z,29.30
2022-08-10T13:43:09.878Z,29.10
2022-08-10T13:48:24.929Z,29.10
2022-08-10T13:53:36.193Z,29.30
2022-08-10T13:58:43.642Z,29.40
2022-08-10T14:04:01.672Z,29.50
2022-08-10T14:09:10.312Z,29.60
2022-08-10T14:14:21.609Z,29.40
2022-08-10T14:19:29.411Z,29.10
2022-08-10T14:24:37.627Z,28.90
2022-08-10T14:29:44.570Z,28.90
2022-08-10T14:36:15.133Z,28.90
2022-08-10T14:40:18.013Z,28.80
2022-08-10T14:45:24.313Z,28.90
2022-08-10T14:50:33.809Z,29.00
2022-08-10T14:55:58.683Z,29.00
2022-08-10T15:01:09.861Z,28.80
2022-08-10T15:06:18.439Z,28.60
2022-08-10T15:12:13.772Z,28.60
2022-08-10T15:16:54.212Z,28.70
2022-08-10T15:22:18.097Z,28.50
2022-08-10T15:27:30.000Z,28.10
2022-08-10T15:33:03.730Z,28.10
2022-08-10T15:38:09.709Z,28.20
2022-08-10T15:43:34.383Z,28.00
2022-08-10T15:48:44.502Z,27.70
2022-08-10T15:54:01.906Z,27.60
2022-08-10T15:59:11.412Z,27.70
2022-08-10T16:04:20.260Z,27.70
2022-08-10T16:10:22.307Z,27.70
2022-08-10T16:14:55.439Z,27.80
2022-08-10T16:20:00.460Z,27.50
2022-08-10T16:25:16.792Z,27.50
2022-08-10T16:30:20.733Z,27.40
2022-08-10T16:35:24.338Z,27.20
2022-08-10T16:40:31.057Z,27.10
2022-08-10T16:45:48.706Z,27.10
2022-08-10T16:50:58.144Z,26.90
2022-08-10T16:56:06.559Z,26.90
2022-08-10T17:01:13.209Z,26.80
2022-08-10T17:06:23.623Z,26.60
2022-08-10T17:11:32.759Z,26.40
2022-08-10T17:16:38.027Z,26.30
2022-08-10T17:21:51.419Z,26.30
2022-08-10T17:28:03.155Z,26.10
2022-08-10T17:32:44.411Z,25.90
2022-08-10T17:37:56.479Z,25.80
2022-08-10T17:43:02.990Z,25.60
2022-08-10T17:48:09.515Z,25.50
2022-08-10T17:53:16.919Z,25.40
2022-08-10T17:58:25.190Z,25.20
2022-08-10T18:03:32.218Z,25.10
2022-08-10T18:08:37.748Z,24.90
2022-08-10T18:13:55.263Z,24.70
2022-08-10T18:19:10.290Z,24.50
2022-08-10T18:24:17.656Z,24.40
2022-08-10T18:29:27.415Z,24.10
2022-08-10T18:34:33.757Z,23.90
2022-08-10T18:39:40.903Z,23.60
2022-08-10T18:45:08.373Z,23.40
2022-08-10T18:50:23.365Z,23.10
2022-08-10T18:55:39.615Z,22.80
2022-08-10T19:01:12.028Z,22.50
2022-08-10T19:06:50.109Z,22.00
2022-08-10T19:12:29.884Z,21.70
2022-08-10T19:18:03.883Z,21.40
2022-08-10T19:23:11.750Z,21.10
2022-08-10T19:28:20.915Z,20.90
2022-08-10T19:33:44.630Z,20.60
2022-08-10T19:38:53.835Z,20.20
2022-08-10T19:44:04.547Z,19.90
2022-08-10T19:49:18.779Z,19.60
2022-08-10T19:54:30.912Z,19.50
2022-08-10T20:00:17.139Z,19.60
2022-08-10T20:05:17.914Z,19.60
2022-08-10T20:10:26.385Z,19.50
2022-08-10T20:15:42.142Z,19.50
2022-08-10T20:20:50.976Z,19.50
2022-08-10T20:26:00.232Z,19.60
2022-08-10T20:31:11.568Z,19.70
2022-08-10T20:36:27.717Z,19.70
2022-08-10T20:41:46.033Z,19.70
2022-08-10T20:47:00.673Z,19.60
2022-08-10T20:52:08.694Z,19.50
2022-08-10T20:57:54.921Z,19.50
2022-08-10T21:03:34.710Z,19.30
2022-08-10T21:08:52.026Z,19.10
2022-08-10T21:14:24.319Z,18.90
2022-08-10T21:20:01.286Z,19.00
2022-08-10T21:25:15.692Z,18.90
2022-08-10T21:30:20.568Z,18.80
2022-08-10T21:35:38.392Z,18.70
2022-08-10T21:41:56.730Z,18.80
2022-08-10T21:47:17.953Z,18.90
2022-08-10T21:53:06.390Z,18.70
2022-08-10T21:58:32.948Z,18.40
2022-08-10T22:03:57.121Z,18.20
2022-08-10T22:09:21.425Z,18.00
2022-08-10T22:14:52.328Z,17.70
2022-08-10T22:20:24.971Z,17.50
2022-08-10T22:26:08.532Z,17.40
2022-08-10T22:31:47.079Z,17.30
2022-08-10T22:37:18.644Z,17.20
2022-08-10T22:42:59.548Z,17.00
2022-08-10T22:48:26.321Z,16.90
2022-08-10T22:53:51.728Z,16.90
2022-08-10T22:58:55.036Z,16.90
2022-08-10T23:04:01.068Z,16.90
2022-08-10T23:09:05.573Z,16.80
2022-08-10T23:14:11.691Z,16.70
2022-08-10T23:19:22.619Z,16.60
2022-08-10T23:24:29.637Z,16.50
2022-08-10T23:29:33.901Z,16.40
2022-08-10T23:36:04.408Z,16.30
2022-08-10T23:40:14.420Z,16.40
2022-08-10T23:45:24.266Z,16.50
2022-08-10T23:50:30.241Z,16.50
2022-08-10T23:55:49.525Z,16.60
